sensor_id;sensor_type;location;lat;lon;timestamp;temperature;humidity
78767;SHT31;68092;51.982;5.680;2023-04-24T00:00:25;12.8;69.5
78767;SHT31;68092;51.982;5.680;2023-04-24T00:02:57;12.8;69.4
78767;SHT31;68092;51.982;5.680;2023-04-24T00:05:27;12.8;69.8
78767;SHT31;68092;51.982;5.680;2023-04-24T00:07:57;12.8;69.2
78767;SHT31;68092;51.982;5.680;2023-04-24T00:10:29;12.8;69.4
78767;SHT31;68092;51.982;5.680;2023-04-24T00:13:02;12.8;69.4
78767;SHT31;68092;51.982;5.680;2023-04-24T00:15:31;12.8;69.0
78767;SHT31;68092;51.982;5.680;2023-04-24T00:18:01;12.8;68.9
78767;SHT31;68092;51.982;5.680;2023-04-24T00:20:33;12.8;69.4
78767;SHT31;68092;51.982;5.680;2023-04-24T00:23:03;12.8;69.4
78767;SHT31;68092;51.982;5.680;2023-04-24T00:25:33;12.7;69.7
78767;SHT31;68092;51.982;5.680;2023-04-24T00:28:02;12.7;69.3
78767;SHT31;68092;51.982;5.680;2023-04-24T00:30:32;12.7;69.5
78767;SHT31;68092;51.982;5.680;2023-04-24T00:33:06;12.7;69.9
78767;SHT31;68092;51.982;5.680;2023-04-24T00:35:37;12.7;69.7
78767;SHT31;68092;51.982;5.680;2023-04-24T00:38:10;12.7;69.7
78767;SHT31;68092;51.982;5.680;2023-04-24T00:40:39;12.8;69.2
78767;SHT31;68092;51.982;5.680;2023-04-24T00:43:09;12.8;69.1
78767;SHT31;68092;51.982;5.680;2023-04-24T00:45:43;12.8;69.2
78767;SHT31;68092;51.982;5.680;2023-04-24T00:48:18;12.8;69.6
78767;SHT31;68092;51.982;5.680;2023-04-24T00:50:50;12.7;69.8
78767;SHT31;68092;51.982;5.680;2023-04-24T00:53:20;12.7;70.0
78767;SHT31;68092;51.982;5.680;2023-04-24T00:55:50;12.7;70.1
78767;SHT31;68092;51.982;5.680;2023-04-24T00:58:20;12.7;70.6
78767;SHT31;68092;51.982;5.680;2023-04-24T01:00:51;12.7;70.6
78767;SHT31;68092;51.982;5.680;2023-04-24T01:03:32;12.7;71.1
78767;SHT31;68092;51.982;5.680;2023-04-24T01:06:05;12.7;69.7
78767;SHT31;68092;51.982;5.680;2023-04-24T01:08:36;12.7;68.7
78767;SHT31;68092;51.982;5.680;2023-04-24T01:11:08;12.7;68.2
78767;SHT31;68092;51.982;5.680;2023-04-24T01:13:40;12.7;67.8
78767;SHT31;68092;51.982;5.680;2023-04-24T01:16:12;12.7;68.2
78767;SHT31;68092;51.982;5.680;2023-04-24T01:18:45;12.7;68.6
78767;SHT31;68092;51.982;5.680;2023-04-24T01:21:16;12.7;68.7
78767;SHT31;68092;51.982;5.680;2023-04-24T01:23:46;12.7;69.1
78767;SHT31;68092;51.982;5.680;2023-04-24T01:26:17;12.6;69.0
78767;SHT31;68092;51.982;5.680;2023-04-24T01:28:51;12.6;69.2
78767;SHT31;68092;51.982;5.680;2023-04-24T01:31:22;12.6;69.2
78767;SHT31;68092;51.982;5.680;2023-04-24T01:33:57;12.6;69.4
78767;SHT31;68092;51.982;5.680;2023-04-24T01:36:27;12.6;69.9
78767;SHT31;68092;51.982;5.680;2023-04-24T01:38:58;12.6;69.6
78767;SHT31;68092;51.982;5.680;2023-04-24T01:41:29;12.6;70.0
78767;SHT31;68092;51.982;5.680;2023-04-24T01:44:00;12.6;70.4
78767;SHT31;68092;51.982;5.680;2023-04-24T01:46:33;12.7;69.9
78767;SHT31;68092;51.982;5.680;2023-04-24T01:49:03;12.7;70.2
78767;SHT31;68092;51.982;5.680;2023-04-24T01:51:38;12.7;70.4
78767;SHT31;68092;51.982;5.680;2023-04-24T01:54:08;12.7;70.4
78767;SHT31;68092;51.982;5.680;2023-04-24T01:56:42;12.7;70.8
78767;SHT31;68092;51.982;5.680;2023-04-24T01:59:13;12.7;71.1
78767;SHT31;68092;51.982;5.680;2023-04-24T02:01:42;12.7;71.0
78767;SHT31;68092;51.982;5.680;2023-04-24T02:04:12;12.7;70.8
78767;SHT31;68092;51.982;5.680;2023-04-24T02:06:42;12.7;70.9
78767;SHT31;68092;51.982;5.680;2023-04-24T02:09:14;12.8;70.8
78767;SHT31;68092;51.982;5.680;2023-04-24T02:11:44;12.8;71.0
78767;SHT31;68092;51.982;5.680;2023-04-24T02:14:14;12.8;70.8
78767;SHT31;68092;51.982;5.680;2023-04-24T02:16:44;12.8;70.6
78767;SHT31;68092;51.982;5.680;2023-04-24T02:19:16;12.8;70.7
78767;SHT31;68092;51.982;5.680;2023-04-24T02:21:46;12.9;70.9
78767;SHT31;68092;51.982;5.680;2023-04-24T02:24:16;12.9;70.7
78767;SHT31;68092;51.982;5.680;2023-04-24T02:26:45;12.9;70.6
78767;SHT31;68092;51.982;5.680;2023-04-24T02:29:15;12.9;70.7
78767;SHT31;68092;51.982;5.680;2023-04-24T02:31:47;12.9;70.9
78767;SHT31;68092;51.982;5.680;2023-04-24T02:34:17;12.9;71.1
78767;SHT31;68092;51.982;5.680;2023-04-24T02:36:47;12.9;71.1
78767;SHT31;68092;51.982;5.680;2023-04-24T02:39:16;12.9;71.4
78767;SHT31;68092;51.982;5.680;2023-04-24T02:41:46;12.9;70.6
78767;SHT31;68092;51.982;5.680;2023-04-24T02:44:16;12.9;69.0
78767;SHT31;68092;51.982;5.680;2023-04-24T02:46:47;12.9;69.3
78767;SHT31;68092;51.982;5.680;2023-04-24T02:49:18;12.9;69.8
78767;SHT31;68092;51.982;5.680;2023-04-24T02:51:48;12.9;70.1
78767;SHT31;68092;51.982;5.680;2023-04-24T02:54:17;12.9;70.3
78767;SHT31;68092;51.982;5.680;2023-04-24T02:56:47;12.9;70.1
78767;SHT31;68092;51.982;5.680;2023-04-24T02:59:18;12.9;69.7
78767;SHT31;68092;51.982;5.680;2023-04-24T03:01:47;12.9;69.4
78767;SHT31;68092;51.982;5.680;2023-04-24T03:04:17;12.9;69.3
78767;SHT31;68092;51.982;5.680;2023-04-24T03:06:47;12.9;69.2
78767;SHT31;68092;51.982;5.680;2023-04-24T03:09:19;12.9;69.2
78767;SHT31;68092;51.982;5.680;2023-04-24T03:11:49;12.9;69.4
78767;SHT31;68092;51.982;5.680;2023-04-24T03:14:19;12.9;69.5
78767;SHT31;68092;51.982;5.680;2023-04-24T03:16:48;12.9;69.9
78767;SHT31;68092;51.982;5.680;2023-04-24T03:19:18;12.8;70.1
78767;SHT31;68092;51.982;5.680;2023-04-24T03:21:48;12.8;70.4
78767;SHT31;68092;51.982;5.680;2023-04-24T03:24:18;12.8;70.1
78767;SHT31;68092;51.982;5.680;2023-04-24T03:26:48;12.8;70.3
78767;SHT31;68092;51.982;5.680;2023-04-24T03:29:18;12.8;70.8
78767;SHT31;68092;51.982;5.680;2023-04-24T03:31:48;12.8;70.5
78767;SHT31;68092;51.982;5.680;2023-04-24T03:34:18;12.8;70.5
78767;SHT31;68092;51.982;5.680;2023-04-24T03:36:47;12.7;70.2
78767;SHT31;68092;51.982;5.680;2023-04-24T03:39:17;12.7;69.7
78767;SHT31;68092;51.982;5.680;2023-04-24T03:41:47;12.7;70.1
78767;SHT31;68092;51.982;5.680;2023-04-24T03:44:16;12.7;70.5
78767;SHT31;68092;51.982;5.680;2023-04-24T03:46:46;12.7;70.3
78767;SHT31;68092;51.982;5.680;2023-04-24T03:49:15;12.7;70.4
78767;SHT31;68092;51.982;5.680;2023-04-24T03:51:45;12.7;70.6
78767;SHT31;68092;51.982;5.680;2023-04-24T03:54:14;12.7;70.2
78767;SHT31;68092;51.982;5.680;2023-04-24T03:56:45;12.7;70.4
78767;SHT31;68092;51.982;5.680;2023-04-24T03:59:15;12.7;70.4
78767;SHT31;68092;51.982;5.680;2023-04-24T04:01:45;12.7;70.2
78767;SHT31;68092;51.982;5.680;2023-04-24T04:04:15;12.7;69.9
78767;SHT31;68092;51.982;5.680;2023-04-24T04:06:45;12.7;69.8
78767;SHT31;68092;51.982;5.680;2023-04-24T04:09:16;12.7;69.4
78767;SHT31;68092;51.982;5.680;2023-04-24T04:11:46;12.7;69.6
78767;SHT31;68092;51.982;5.680;2023-04-24T04:14:16;12.7;69.3
78767;SHT31;68092;51.982;5.680;2023-04-24T04:16:46;12.6;69.0
78767;SHT31;68092;51.982;5.680;2023-04-24T04:19:16;12.6;69.1
78767;SHT31;68092;51.982;5.680;2023-04-24T04:21:46;12.6;69.0
78767;SHT31;68092;51.982;5.680;2023-04-24T04:24:19;12.6;69.3
78767;SHT31;68092;51.982;5.680;2023-04-24T04:26:51;12.6;68.7
78767;SHT31;68092;51.982;5.680;2023-04-24T04:29:24;12.6;68.7
78767;SHT31;68092;51.982;5.680;2023-04-24T04:31:53;12.6;69.4
78767;SHT31;68092;51.982;5.680;2023-04-24T04:34:23;12.6;68.7
78767;SHT31;68092;51.982;5.680;2023-04-24T04:36:53;12.5;69.2
78767;SHT31;68092;51.982;5.680;2023-04-24T04:39:22;12.5;69.1
78767;SHT31;68092;51.982;5.680;2023-04-24T04:41:52;12.5;69.3
78767;SHT31;68092;51.982;5.680;2023-04-24T04:44:21;12.5;69.1
78767;SHT31;68092;51.982;5.680;2023-04-24T04:46:51;12.5;69.6
78767;SHT31;68092;51.982;5.680;2023-04-24T04:49:23;12.5;69.8
78767;SHT31;68092;51.982;5.680;2023-04-24T04:51:55;12.5;69.7
78767;SHT31;68092;51.982;5.680;2023-04-24T04:54:25;12.5;69.8
78767;SHT31;68092;51.982;5.680;2023-04-24T04:56:55;12.4;69.6
78767;SHT31;68092;51.982;5.680;2023-04-24T04:59:25;12.4;69.7
78767;SHT31;68092;51.982;5.680;2023-04-24T05:01:55;12.4;69.5
78767;SHT31;68092;51.982;5.680;2023-04-24T05:04:26;12.4;69.1
78767;SHT31;68092;51.982;5.680;2023-04-24T05:06:55;12.4;69.8
78767;SHT31;68092;51.982;5.680;2023-04-24T05:09:27;12.4;69.8
78767;SHT31;68092;51.982;5.680;2023-04-24T05:11:57;12.4;69.4
78767;SHT31;68092;51.982;5.680;2023-04-24T05:14:27;12.4;69.0
78767;SHT31;68092;51.982;5.680;2023-04-24T05:16:57;12.4;69.0
78767;SHT31;68092;51.982;5.680;2023-04-24T05:19:27;12.5;68.7
78767;SHT31;68092;51.982;5.680;2023-04-24T05:21:57;12.5;68.7
78767;SHT31;68092;51.982;5.680;2023-04-24T05:24:26;12.5;69.6
78767;SHT31;68092;51.982;5.680;2023-04-24T05:26:56;12.5;69.3
78767;SHT31;68092;51.982;5.680;2023-04-24T05:29:26;12.6;68.8
78767;SHT31;68092;51.982;5.680;2023-04-24T05:32:01;12.6;68.7
78767;SHT31;68092;51.982;5.680;2023-04-24T05:34:31;12.6;68.1
78767;SHT31;68092;51.982;5.680;2023-04-24T05:37:01;12.7;69.1
78767;SHT31;68092;51.982;5.680;2023-04-24T05:39:36;12.7;68.9
78767;SHT31;68092;51.982;5.680;2023-04-24T05:42:06;12.8;68.8
78767;SHT31;68092;51.982;5.680;2023-04-24T05:44:36;12.8;68.6
78767;SHT31;68092;51.982;5.680;2023-04-24T05:47:08;12.8;68.7
78767;SHT31;68092;51.982;5.680;2023-04-24T05:49:38;12.9;68.8
78767;SHT31;68092;51.982;5.680;2023-04-24T05:52:07;12.9;68.5
78767;SHT31;68092;51.982;5.680;2023-04-24T05:54:38;12.9;68.6
78767;SHT31;68092;51.982;5.680;2023-04-24T05:57:08;12.9;69.8
78767;SHT31;68092;51.982;5.680;2023-04-24T05:59:38;13.0;69.8
78767;SHT31;68092;51.982;5.680;2023-04-24T06:02:07;13.0;69.6
78767;SHT31;68092;51.982;5.680;2023-04-24T06:04:37;13.1;69.0
78767;SHT31;68092;51.982;5.680;2023-04-24T06:07:07;13.1;69.1
78767;SHT31;68092;51.982;5.680;2023-04-24T06:09:37;13.1;69.1
78767;SHT31;68092;51.982;5.680;2023-04-24T06:12:07;13.2;69.5
78767;SHT31;68092;51.982;5.680;2023-04-24T06:14:36;13.2;68.8
78767;SHT31;68092;51.982;5.680;2023-04-24T06:17:06;13.3;68.9
78767;SHT31;68092;51.982;5.680;2023-04-24T06:19:36;13.3;69.2
78767;SHT31;68092;51.982;5.680;2023-04-24T06:22:05;13.3;68.3
78767;SHT31;68092;51.982;5.680;2023-04-24T06:24:36;13.4;69.0
78767;SHT31;68092;51.982;5.680;2023-04-24T06:27:06;13.4;69.1
78767;SHT31;68092;51.982;5.680;2023-04-24T06:29:36;13.4;68.9
78767;SHT31;68092;51.982;5.680;2023-04-24T06:32:07;13.5;67.8
78767;SHT31;68092;51.982;5.680;2023-04-24T06:34:37;13.5;68.8
78767;SHT31;68092;51.982;5.680;2023-04-24T06:37:07;13.5;67.8
78767;SHT31;68092;51.982;5.680;2023-04-24T06:39:36;13.5;67.5
78767;SHT31;68092;51.982;5.680;2023-04-24T06:42:06;13.5;67.6
78767;SHT31;68092;51.982;5.680;2023-04-24T06:44:37;13.5;67.2
78767;SHT31;68092;51.982;5.680;2023-04-24T06:47:09;13.5;67.6
78767;SHT31;68092;51.982;5.680;2023-04-24T06:49:43;13.5;66.9
78767;SHT31;68092;51.982;5.680;2023-04-24T06:52:13;13.5;67.3
78767;SHT31;68092;51.982;5.680;2023-04-24T06:54:43;13.5;67.3
78767;SHT31;68092;51.982;5.680;2023-04-24T06:57:15;13.5;66.9
78767;SHT31;68092;51.982;5.680;2023-04-24T06:59:45;13.5;67.0
78767;SHT31;68092;51.982;5.680;2023-04-24T07:02:14;13.5;66.1
78767;SHT31;68092;51.982;5.680;2023-04-24T07:04:46;13.4;67.0
78767;SHT31;68092;51.982;5.680;2023-04-24T07:07:16;13.4;66.1
78767;SHT31;68092;51.982;5.680;2023-04-24T07:09:45;13.4;67.3
78767;SHT31;68092;51.982;5.680;2023-04-24T07:12:16;13.3;67.0
78767;SHT31;68092;51.982;5.680;2023-04-24T07:14:48;13.3;66.8
78767;SHT31;68092;51.982;5.680;2023-04-24T07:17:18;13.3;67.1
78767;SHT31;68092;51.982;5.680;2023-04-24T07:19:48;13.2;67.1
78767;SHT31;68092;51.982;5.680;2023-04-24T07:22:17;13.2;67.3
78767;SHT31;68092;51.982;5.680;2023-04-24T07:24:47;13.2;67.5
78767;SHT31;68092;51.982;5.680;2023-04-24T07:27:18;13.2;67.7
78767;SHT31;68092;51.982;5.680;2023-04-24T07:29:48;13.2;68.2
78767;SHT31;68092;51.982;5.680;2023-04-24T07:32:18;13.2;68.3
78767;SHT31;68092;51.982;5.680;2023-04-24T07:34:47;13.2;68.3
78767;SHT31;68092;51.982;5.680;2023-04-24T07:37:17;13.2;67.6
78767;SHT31;68092;51.982;5.680;2023-04-24T07:39:48;13.2;67.6
78767;SHT31;68092;51.982;5.680;2023-04-24T07:42:17;13.2;68.2
78767;SHT31;68092;51.982;5.680;2023-04-24T07:44:48;13.2;67.3
78767;SHT31;68092;51.982;5.680;2023-04-24T07:47:18;13.2;67.3
78767;SHT31;68092;51.982;5.680;2023-04-24T07:49:48;13.2;67.3
78767;SHT31;68092;51.982;5.680;2023-04-24T07:52:18;13.2;66.7
78767;SHT31;68092;51.982;5.680;2023-04-24T07:54:48;13.2;66.5
78767;SHT31;68092;51.982;5.680;2023-04-24T07:57:17;13.2;66.9
78767;SHT31;68092;51.982;5.680;2023-04-24T07:59:47;13.2;66.8
78767;SHT31;68092;51.982;5.680;2023-04-24T08:02:17;13.2;66.8
78767;SHT31;68092;51.982;5.680;2023-04-24T08:04:49;13.2;66.6
78767;SHT31;68092;51.982;5.680;2023-04-24T08:07:18;13.2;66.2
78767;SHT31;68092;51.982;5.680;2023-04-24T08:09:48;13.2;66.0
78767;SHT31;68092;51.982;5.680;2023-04-24T08:12:18;13.2;66.3
78767;SHT31;68092;51.982;5.680;2023-04-24T08:14:48;13.2;66.8
78767;SHT31;68092;51.982;5.680;2023-04-24T08:17:18;13.2;66.3
78767;SHT31;68092;51.982;5.680;2023-04-24T08:19:48;13.2;66.7
78767;SHT31;68092;51.982;5.680;2023-04-24T08:22:20;13.2;66.4
78767;SHT31;68092;51.982;5.680;2023-04-24T08:24:51;13.2;66.0
78767;SHT31;68092;51.982;5.680;2023-04-24T08:27:21;13.2;66.7
78767;SHT31;68092;51.982;5.680;2023-04-24T08:29:53;13.1;67.3
78767;SHT31;68092;51.982;5.680;2023-04-24T08:32:23;13.1;66.7
78767;SHT31;68092;51.982;5.680;2023-04-24T08:34:52;13.1;67.1
78767;SHT31;68092;51.982;5.680;2023-04-24T08:37:25;13.1;66.8
78767;SHT31;68092;51.982;5.680;2023-04-24T08:39:55;13.1;66.2
78767;SHT31;68092;51.982;5.680;2023-04-24T08:42:28;13.1;67.2
78767;SHT31;68092;51.982;5.680;2023-04-24T08:45:00;13.1;66.8
78767;SHT31;68092;51.982;5.680;2023-04-24T08:47:31;13.1;67.2
78767;SHT31;68092;51.982;5.680;2023-04-24T08:50:03;13.1;67.1
78767;SHT31;68092;51.982;5.680;2023-04-24T08:52:35;13.1;67.4
78767;SHT31;68092;51.982;5.680;2023-04-24T08:55:10;13.1;66.8
78767;SHT31;68092;51.982;5.680;2023-04-24T08:57:42;13.1;67.0
78767;SHT31;68092;51.982;5.680;2023-04-24T09:00:13;13.1;67.5
78767;SHT31;68092;51.982;5.680;2023-04-24T09:02:45;13.2;66.6
78767;SHT31;68092;51.982;5.680;2023-04-24T09:05:17;13.2;67.1
78767;SHT31;68092;51.982;5.680;2023-04-24T09:07:51;13.2;67.3
78767;SHT31;68092;51.982;5.680;2023-04-24T09:10:25;13.2;66.6
78767;SHT31;68092;51.982;5.680;2023-04-24T09:12:59;13.2;66.3
78767;SHT31;68092;51.982;5.680;2023-04-24T09:15:30;13.2;65.4
78767;SHT31;68092;51.982;5.680;2023-04-24T09:18:04;13.2;66.3
78767;SHT31;68092;51.982;5.680;2023-04-24T09:21:01;13.2;66.2
78767;SHT31;68092;51.982;5.680;2023-04-24T09:23:40;13.2;65.6
78767;SHT31;68092;51.982;5.680;2023-04-24T09:26:10;13.2;63.8
78767;SHT31;68092;51.982;5.680;2023-04-24T09:28:41;13.2;65.2
78767;SHT31;68092;51.982;5.680;2023-04-24T09:31:16;13.2;66.0
78767;SHT31;68092;51.982;5.680;2023-04-24T09:33:55;13.2;65.6
78767;SHT31;68092;51.982;5.680;2023-04-24T09:36:32;13.2;66.4
78767;SHT31;68092;51.982;5.680;2023-04-24T09:39:05;13.3;65.2
78767;SHT31;68092;51.982;5.680;2023-04-24T09:41:47;13.3;65.0
78767;SHT31;68092;51.982;5.680;2023-04-24T09:44:21;13.3;63.3
78767;SHT31;68092;51.982;5.680;2023-04-24T09:46:53;13.3;63.4
78767;SHT31;68092;51.982;5.680;2023-04-24T09:49:26;13.3;60.9
78767;SHT31;68092;51.982;5.680;2023-04-24T09:52:05;13.3;63.4
78767;SHT31;68092;51.982;5.680;2023-04-24T09:54:36;13.3;63.9
78767;SHT31;68092;51.982;5.680;2023-04-24T09:57:07;13.4;63.6
78767;SHT31;68092;51.982;5.680;2023-04-24T09:59:42;13.4;64.9
78767;SHT31;68092;51.982;5.680;2023-04-24T10:02:21;13.4;65.0
78767;SHT31;68092;51.982;5.680;2023-04-24T10:04:57;13.5;63.6
78767;SHT31;68092;51.982;5.680;2023-04-24T10:07:28;13.5;65.6
78767;SHT31;68092;51.982;5.680;2023-04-24T10:09:58;13.6;63.9
78767;SHT31;68092;51.982;5.680;2023-04-24T10:12:29;13.7;63.6
78767;SHT31;68092;51.982;5.680;2023-04-24T10:15:00;13.7;63.2
78767;SHT31;68092;51.982;5.680;2023-04-24T10:17:36;13.8;64.2
78767;SHT31;68092;51.982;5.680;2023-04-24T10:20:08;13.9;62.3
78767;SHT31;68092;51.982;5.680;2023-04-24T10:22:41;14.0;61.0
78767;SHT31;68092;51.982;5.680;2023-04-24T10:25:15;14.1;60.4
78767;SHT31;68092;51.982;5.680;2023-04-24T10:27:47;14.2;56.2
78767;SHT31;68092;51.982;5.680;2023-04-24T10:30:19;14.2;56.1
78767;SHT31;68092;51.982;5.680;2023-04-24T10:32:51;14.3;55.9
78767;SHT31;68092;51.982;5.680;2023-04-24T10:35:22;14.3;56.0
78767;SHT31;68092;51.982;5.680;2023-04-24T10:37:58;14.3;57.9
78767;SHT31;68092;51.982;5.680;2023-04-24T10:40:31;14.3;58.9
78767;SHT31;68092;51.982;5.680;2023-04-24T10:43:05;14.3;57.8
78767;SHT31;68092;51.982;5.680;2023-04-24T10:45:38;14.3;55.0
78767;SHT31;68092;51.982;5.680;2023-04-24T10:48:10;14.3;55.2
78767;SHT31;68092;51.982;5.680;2023-04-24T10:50:47;14.3;53.9
78767;SHT31;68092;51.982;5.680;2023-04-24T10:53:20;14.3;56.9
78767;SHT31;68092;51.982;5.680;2023-04-24T10:55:52;14.3;56.2
78767;SHT31;68092;51.982;5.680;2023-04-24T10:58:40;14.3;55.7
78767;SHT31;68092;51.982;5.680;2023-04-24T11:01:24;14.3;54.9
78767;SHT31;68092;51.982;5.680;2023-04-24T11:03:57;14.3;55.6
78767;SHT31;68092;51.982;5.680;2023-04-24T11:06:32;14.3;56.0
78767;SHT31;68092;51.982;5.680;2023-04-24T11:09:06;14.3;54.0
78767;SHT31;68092;51.982;5.680;2023-04-24T11:11:37;14.3;56.0
78767;SHT31;68092;51.982;5.680;2023-04-24T11:14:09;14.4;56.0
78767;SHT31;68092;51.982;5.680;2023-04-24T11:16:43;14.4;54.5
78767;SHT31;68092;51.982;5.680;2023-04-24T11:19:22;14.4;54.1
78767;SHT31;68092;51.982;5.680;2023-04-24T11:21:58;14.4;54.4
78767;SHT31;68092;51.982;5.680;2023-04-24T11:24:32;14.4;56.0
78767;SHT31;68092;51.982;5.680;2023-04-24T11:27:06;14.5;56.9
78767;SHT31;68092;51.982;5.680;2023-04-24T11:29:45;14.5;56.1
78767;SHT31;68092;51.982;5.680;2023-04-24T11:32:27;14.5;55.4
78767;SHT31;68092;51.982;5.680;2023-04-24T11:34:58;14.6;59.2
78767;SHT31;68092;51.982;5.680;2023-04-24T11:37:36;14.7;55.0
78767;SHT31;68092;51.982;5.680;2023-04-24T11:40:06;14.8;56.6
78767;SHT31;68092;51.982;5.680;2023-04-24T11:42:39;14.8;54.9
78767;SHT31;68092;51.982;5.680;2023-04-24T11:45:11;14.9;53.2
78767;SHT31;68092;51.982;5.680;2023-04-24T11:47:42;14.9;52.4
78767;SHT31;68092;51.982;5.680;2023-04-24T11:50:14;14.9;54.3
78767;SHT31;68092;51.982;5.680;2023-04-24T11:52:49;15.0;54.5
78767;SHT31;68092;51.982;5.680;2023-04-24T11:55:29;15.0;55.7
78767;SHT31;68092;51.982;5.680;2023-04-24T11:58:00;15.0;55.5
78767;SHT31;68092;51.982;5.680;2023-04-24T12:00:32;15.0;54.7
78767;SHT31;68092;51.982;5.680;2023-04-24T12:03:09;15.0;53.5
78767;SHT31;68092;51.982;5.680;2023-04-24T12:05:39;15.0;56.0
78767;SHT31;68092;51.982;5.680;2023-04-24T12:08:11;15.0;56.5
78767;SHT31;68092;51.982;5.680;2023-04-24T12:10:41;15.0;55.9
78767;SHT31;68092;51.982;5.680;2023-04-24T12:13:11;15.0;56.7
78767;SHT31;68092;51.982;5.680;2023-04-24T12:15:41;15.0;54.7
78767;SHT31;68092;51.982;5.680;2023-04-24T12:18:16;14.9;57.1
78767;SHT31;68092;51.982;5.680;2023-04-24T12:20:46;14.9;56.0
78767;SHT31;68092;51.982;5.680;2023-04-24T12:23:16;14.9;56.6
78767;SHT31;68092;51.982;5.680;2023-04-24T12:25:46;14.9;55.4
78767;SHT31;68092;51.982;5.680;2023-04-24T12:28:16;14.9;55.2
78767;SHT31;68092;51.982;5.680;2023-04-24T12:30:48;14.9;54.2
78767;SHT31;68092;51.982;5.680;2023-04-24T12:33:20;15.0;54.7
78767;SHT31;68092;51.982;5.680;2023-04-24T12:35:56;15.0;51.2
78767;SHT31;68092;51.982;5.680;2023-04-24T12:38:28;15.0;51.3
78767;SHT31;68092;51.982;5.680;2023-04-24T12:41:07;14.9;53.3
78767;SHT31;68092;51.982;5.680;2023-04-24T12:43:37;14.9;53.8
78767;SHT31;68092;51.982;5.680;2023-04-24T12:46:08;14.9;53.5
78767;SHT31;68092;51.982;5.680;2023-04-24T12:48:38;14.9;53.0
78767;SHT31;68092;51.982;5.680;2023-04-24T12:51:08;14.9;52.5
78767;SHT31;68092;51.982;5.680;2023-04-24T12:53:38;14.9;51.7
78767;SHT31;68092;51.982;5.680;2023-04-24T12:56:08;14.9;52.1
78767;SHT31;68092;51.982;5.680;2023-04-24T12:58:38;14.9;53.2
78767;SHT31;68092;51.982;5.680;2023-04-24T13:01:07;14.9;51.2
78767;SHT31;68092;51.982;5.680;2023-04-24T13:03:37;14.9;51.8
78767;SHT31;68092;51.982;5.680;2023-04-24T13:06:07;14.8;51.9
78767;SHT31;68092;51.982;5.680;2023-04-24T13:08:38;14.8;52.8
78767;SHT31;68092;51.982;5.680;2023-04-24T13:11:09;14.8;52.8
78767;SHT31;68092;51.982;5.680;2023-04-24T13:13:39;14.9;50.1
78767;SHT31;68092;51.982;5.680;2023-04-24T13:16:09;14.9;50.9
78767;SHT31;68092;51.982;5.680;2023-04-24T13:18:38;14.9;50.2
78767;SHT31;68092;51.982;5.680;2023-04-24T13:21:08;14.9;49.5
78767;SHT31;68092;51.982;5.680;2023-04-24T13:23:38;14.8;50.5
78767;SHT31;68092;51.982;5.680;2023-04-24T13:26:09;14.8;51.0
78767;SHT31;68092;51.982;5.680;2023-04-24T13:28:42;14.8;51.7
78767;SHT31;68092;51.982;5.680;2023-04-24T13:31:14;14.8;49.8
78767;SHT31;68092;51.982;5.680;2023-04-24T13:33:44;14.8;50.6
78767;SHT31;68092;51.982;5.680;2023-04-24T13:36:17;14.8;50.2
78767;SHT31;68092;51.982;5.680;2023-04-24T13:38:46;14.8;51.2
78767;SHT31;68092;51.982;5.680;2023-04-24T13:41:16;14.8;52.1
78767;SHT31;68092;51.982;5.680;2023-04-24T13:43:46;14.8;50.9
78767;SHT31;68092;51.982;5.680;2023-04-24T13:46:16;14.8;52.9
78767;SHT31;68092;51.982;5.680;2023-04-24T13:48:46;14.9;52.4
78767;SHT31;68092;51.982;5.680;2023-04-24T13:51:17;15.0;52.0
78767;SHT31;68092;51.982;5.680;2023-04-24T13:53:47;15.1;51.5
78767;SHT31;68092;51.982;5.680;2023-04-24T13:56:19;15.3;50.8
78767;SHT31;68092;51.982;5.680;2023-04-24T13:58:49;15.5;50.3
78767;SHT31;68092;51.982;5.680;2023-04-24T14:01:19;15.6;49.7
78767;SHT31;68092;51.982;5.680;2023-04-24T14:03:52;15.8;46.9
78767;SHT31;68092;51.982;5.680;2023-04-24T14:06:23;15.9;47.4
78767;SHT31;68092;51.982;5.680;2023-04-24T14:08:53;16.0;47.5
78767;SHT31;68092;51.982;5.680;2023-04-24T14:11:25;16.0;48.6
78767;SHT31;68092;51.982;5.680;2023-04-24T14:13:55;16.1;48.2
78767;SHT31;68092;51.982;5.680;2023-04-24T14:16:26;16.2;46.8
78767;SHT31;68092;51.982;5.680;2023-04-24T14:18:56;16.3;45.9
78767;SHT31;68092;51.982;5.680;2023-04-24T14:21:26;16.4;45.0
78767;SHT31;68092;51.982;5.680;2023-04-24T14:23:56;16.5;44.1
78767;SHT31;68092;51.982;5.680;2023-04-24T14:26:26;16.6;42.1
78767;SHT31;68092;51.982;5.680;2023-04-24T14:28:56;16.6;43.9
78767;SHT31;68092;51.982;5.680;2023-04-24T14:31:30;16.7;43.9
78767;SHT31;68092;51.982;5.680;2023-04-24T14:34:00;16.8;43.3
78767;SHT31;68092;51.982;5.680;2023-04-24T14:36:30;16.8;42.5
78767;SHT31;68092;51.982;5.680;2023-04-24T14:39:01;16.8;42.8
78767;SHT31;68092;51.982;5.680;2023-04-24T14:41:34;16.8;43.7
78767;SHT31;68092;51.982;5.680;2023-04-24T14:44:06;16.9;43.1
78767;SHT31;68092;51.982;5.680;2023-04-24T14:46:36;16.9;43.0
78767;SHT31;68092;51.982;5.680;2023-04-24T14:49:06;16.9;45.2
78767;SHT31;68092;51.982;5.680;2023-04-24T14:51:37;17.0;43.4
78767;SHT31;68092;51.982;5.680;2023-04-24T14:54:09;17.0;42.7
78767;SHT31;68092;51.982;5.680;2023-04-24T14:56:39;17.1;43.6
78767;SHT31;68092;51.982;5.680;2023-04-24T14:59:10;17.1;41.9
78767;SHT31;68092;51.982;5.680;2023-04-24T15:01:39;17.1;43.5
78767;SHT31;68092;51.982;5.680;2023-04-24T15:04:12;17.1;44.1
78767;SHT31;68092;51.982;5.680;2023-04-24T15:06:42;17.1;42.6
78767;SHT31;68092;51.982;5.680;2023-04-24T15:09:11;17.2;43.1
78767;SHT31;68092;51.982;5.680;2023-04-24T15:11:41;17.2;43.6
78767;SHT31;68092;51.982;5.680;2023-04-24T15:14:11;17.1;42.1
78767;SHT31;68092;51.982;5.680;2023-04-24T15:16:43;17.1;43.1
78767;SHT31;68092;51.982;5.680;2023-04-24T15:19:13;17.1;41.4
78767;SHT31;68092;51.982;5.680;2023-04-24T15:21:42;17.0;41.8
78767;SHT31;68092;51.982;5.680;2023-04-24T15:24:12;17.0;42.2
78767;SHT31;68092;51.982;5.680;2023-04-24T15:26:42;16.9;41.8
78767;SHT31;68092;51.982;5.680;2023-04-24T15:29:11;16.9;44.1
78767;SHT31;68092;51.982;5.680;2023-04-24T15:31:41;16.8;42.5
78767;SHT31;68092;51.982;5.680;2023-04-24T15:34:11;16.8;44.5
78767;SHT31;68092;51.982;5.680;2023-04-24T15:36:40;16.7;43.8
78767;SHT31;68092;51.982;5.680;2023-04-24T15:39:12;16.7;44.0
78767;SHT31;68092;51.982;5.680;2023-04-24T15:41:42;16.6;44.4
78767;SHT31;68092;51.982;5.680;2023-04-24T15:44:11;16.5;43.6
78767;SHT31;68092;51.982;5.680;2023-04-24T15:46:41;16.5;42.9
78767;SHT31;68092;51.982;5.680;2023-04-24T15:49:11;16.5;41.7
78767;SHT31;68092;51.982;5.680;2023-04-24T15:51:41;16.4;44.0
78767;SHT31;68092;51.982;5.680;2023-04-24T15:54:11;16.4;43.8
78767;SHT31;68092;51.982;5.680;2023-04-24T15:56:41;16.4;43.3
78767;SHT31;68092;51.982;5.680;2023-04-24T15:59:11;16.4;43.6
78767;SHT31;68092;51.982;5.680;2023-04-24T16:01:43;16.3;44.7
78767;SHT31;68092;51.982;5.680;2023-04-24T16:04:16;16.3;45.9
78767;SHT31;68092;51.982;5.680;2023-04-24T16:06:46;16.3;46.5
78767;SHT31;68092;51.982;5.680;2023-04-24T16:09:16;16.4;46.5
78767;SHT31;68092;51.982;5.680;2023-04-24T16:11:46;16.5;45.7
78767;SHT31;68092;51.982;5.680;2023-04-24T16:14:15;16.5;45.6
78767;SHT31;68092;51.982;5.680;2023-04-24T16:16:49;16.6;46.0
78767;SHT31;68092;51.982;5.680;2023-04-24T16:19:21;16.6;44.2
78767;SHT31;68092;51.982;5.680;2023-04-24T16:21:52;16.6;42.0
78767;SHT31;68092;51.982;5.680;2023-04-24T16:24:29;16.5;43.3
78767;SHT31;68092;51.982;5.680;2023-04-24T16:26:59;16.5;43.7